Accueil
METAR-TAF:

METAR-TAF

Aéroports :

Aéroport de Southampton

Southampton, Angleterre

latitude: 50-54N, longitude: 001-24W, altitude: 9 m

Observation

Le bulletin a été fait il y a 5 heures et 58 minutes, à 23:20 UTC
Vent calme
Température 0°C
Humidité 100%
Pression 1024 hPa
Visibilité: 0500 m
Nuages fragmentés à une hauteur de 500 ft
brouillard

METAR: EGHI 152320Z 00000KT 0500 R20/0225 FG BKN005 00/M00 Q1024

Heure: 05:18 (05:18 UTC)

Prévision

Le bulletin a été fait il y a 7 heures et 23 minutes, à 21:55 UTC
Prévision valable du 15 à 21 UTC au 15 à 23 UTC
Vent 6 kt de sud/sud-est
Visibilité: 0300 m
brouillard
Temporairement
du 15 à 21 UTC au 15 à 23 UTC
Visibilité: 3000 m
Nuages épars à une hauteur de 400 ft
brume

TAF: EGHI 152155Z 1521/1523 16006KT 0300 FG VV/// TEMPO 1521/1523 3000 BR SCT004

Observations et prévisions météorologiques de plus de 4000 aéroports (messages METAR et TAF).

Les stations disponibles sont représentées par des disques jaunes et rouges sur la carte.

Passer la souris dessus pour voir le nom de la station.

Cliquer dessus pour voir les observations et prévisions météorologiques.

Pour changer de carte: cliquez sur les boutons verts avec une croix noire pour zoomer, sur le bouton vert avec un tiret pour effectuer un zoom arrière, ou sur les flèches vertes pour les cartes adjacentes.


METAR-TAF: